Time;durP1;ratioP1;P1;durP2;ratioP2;P2;SDS_P1;SDS_P2;PMS_P1;PMS_P2;Temp;Humidity;BMP_temperature;BMP_pressure;BME280_temperature;BME280_humidity;BME280_pressure;Samples;Min_cycle;Max_cycle;Signal;HPM_P1;HPM_P2
2022/11/21 00:01:43;;;;;;;25.97;17.93;;;0.90;99.90;;;-141.84;80.64;18765.28;5033537;28;20232;-64
2022/11/21 00:04:12;;;;;;;27.80;18.17;;;0.80;99.90;;;-141.84;80.68;18769.34;5033635;28;20234;-62
2022/11/21 00:06:40;;;;;;;28.13;19.50;;;0.90;99.90;;;-141.84;80.92;18783.56;5033382;28;20206;-63
2022/11/21 00:09:08;;;;;;;27.07;17.30;;;0.90;99.90;;;-141.84;80.82;18744.97;5033188;28;20634;-61
2022/11/21 00:11:37;;;;;;;26.47;17.13;;;0.90;99.90;;;-141.84;80.69;18781.53;5032945;28;20229;-62
2022/11/21 00:14:05;;;;;;;26.80;17.77;;;0.90;99.90;;;-141.84;80.83;18775.44;5032969;28;20230;-62
2022/11/21 00:16:33;;;;;;;26.03;17.43;;;1.00;99.90;;;-141.84;81.07;18779.50;5033131;28;20230;-63
2022/11/21 00:19:03;;;;;;;28.27;17.60;;;1.00;99.90;;;-141.84;81.17;18765.28;5033100;28;20232;-62
2022/11/21 00:21:32;;;;;;;26.17;17.83;;;1.00;99.90;;;-141.84;81.29;18751.06;5032749;28;20256;-64
2022/11/21 00:24:00;;;;;;;27.60;18.57;;;1.00;99.90;;;-141.84;81.59;18759.19;5033189;28;20206;-60
2022/11/21 00:26:29;;;;;;;27.20;17.37;;;1.00;99.90;;;-141.84;81.64;18751.06;5032670;28;20280;-62
2022/11/21 00:28:57;;;;;;;26.13;17.63;;;1.00;99.90;;;-141.84;81.38;18744.97;5032541;28;20230;-63
2022/11/21 00:31:25;;;;;;;27.47;18.13;;;1.10;99.90;;;-141.84;81.54;18765.28;5032831;28;20292;-61
2022/11/21 00:33:53;;;;;;;28.53;18.67;;;1.10;99.90;;;-141.84;81.63;18775.44;5032933;28;20222;-61
2022/11/21 00:36:21;;;;;;;29.33;18.67;;;1.10;99.90;;;-141.84;81.51;18744.97;5033080;28;20211;-61
2022/11/21 00:38:51;;;;;;;26.17;17.00;;;1.10;99.90;;;-141.84;81.39;18799.81;5032629;28;20229;-64
2022/11/21 00:41:19;;;;;;;24.73;17.83;;;1.00;99.90;;;-141.84;81.53;18781.53;5032153;28;20233;-62
2022/11/21 00:43:47;;;;;;;26.90;17.53;;;1.10;99.90;;;-141.84;81.48;18775.44;5032501;28;20229;-62
2022/11/21 00:46:15;;;;;;;27.90;17.60;;;1.10;99.90;;;-141.84;81.42;18757.16;5032228;28;20288;-62
2022/11/21 00:48:43;;;;;;;27.90;18.63;;;1.10;99.90;;;-141.84;81.36;18791.69;5032311;28;20202;-62
2022/11/21 00:51:12;;;;;;;29.47;17.93;;;1.10;99.90;;;-141.84;81.46;18777.47;5032880;28;20226;-62
2022/11/21 00:53:40;;;;;;;27.83;18.00;;;1.10;99.90;;;-141.84;81.57;18740.91;5032321;28;20225;-62
2022/11/21 00:56:10;;;;;;;30.67;19.30;;;1.10;99.90;;;-141.84;81.53;18783.56;5032002;28;20229;-62
2022/11/21 00:58:38;;;;;;;26.87;17.53;;;1.20;99.90;;;-141.84;81.73;18744.97;5032276;28;20237;-62
2022/11/21 01:01:10;;;;;;;26.07;17.37;;;1.10;99.90;;;-141.84;82.07;18771.38;5032089;28;20733;-60
2022/11/21 01:03:38;;;;;;;26.73;17.33;;;1.20;99.90;;;-141.84;82.23;18769.34;5032363;28;20183;-62
2022/11/21 01:06:09;;;;;;;28.57;18.67;;;1.10;99.90;;;-141.84;82.07;18771.38;5032899;28;20201;-61
2022/11/21 01:08:40;;;;;;;28.37;16.80;;;1.20;99.90;;;-141.84;82.12;18781.53;5031970;28;20721;-61
2022/11/21 01:11:12;;;;;;;30.20;18.37;;;1.20;99.90;;;-141.84;82.39;18785.59;5031773;28;20238;-62
2022/11/21 01:13:41;;;;;;;29.10;18.53;;;1.20;99.90;;;-141.84;82.56;18749.03;5032001;28;20237;-61
2022/11/21 01:16:12;;;;;;;25.93;18.30;;;1.20;99.90;;;-141.84;82.59;18732.78;5032052;28;20238;-61
2022/11/21 01:18:41;;;;;;;28.50;17.77;;;1.20;99.90;;;-141.84;82.55;18736.84;5032092;28;20452;-61
2022/11/21 01:21:15;;;;;;;27.20;17.50;;;1.20;99.90;;;-141.84;82.21;18773.41;5032224;28;20194;-60
2022/11/21 01:23:43;;;;;;;27.50;18.50;;;1.20;99.90;;;-141.84;82.35;18765.28;5031806;28;20233;-61
2022/11/21 01:26:15;;;;;;;28.70;18.07;;;1.20;99.90;;;-141.84;82.79;18744.97;5031412;28;20226;-60
2022/11/21 01:28:43;;;;;;;30.63;18.50;;;1.20;99.90;;;-141.84;82.72;18728.72;5031633;28;20720;-61
2022/11/21 01:31:15;;;;;;;28.83;18.00;;;1.20;99.90;;;-141.84;82.20;18791.69;5031884;28;20230;-62
2022/11/21 01:33:43;;;;;;;28.60;17.97;;;1.30;99.90;;;-141.84;81.79;18771.38;5031799;28;20189;-60
2022/11/21 01:36:14;;;;;;;24.63;16.43;;;1.30;99.90;;;-141.84;82.06;18728.72;5032309;28;20206;-61
2022/11/21 01:38:45;;;;;;;27.50;18.30;;;1.30;99.90;;;-141.84;82.28;18777.47;5031295;28;20283;-62
2022/11/21 01:41:18;;;;;;;31.67;18.60;;;1.20;99.90;;;-141.84;82.39;18759.19;5031397;28;20252;-61
2022/11/21 01:43:47;;;;;;;26.27;17.37;;;1.20;99.90;;;-141.84;82.85;18747.00;5031225;28;20241;-62
2022/11/21 01:46:18;;;;;;;27.90;18.87;;;1.10;99.90;;;-141.84;83.10;18740.91;5031608;28;20348;-60
2022/11/21 01:48:55;;;;;;;29.63;18.70;;;1.10;99.90;;;-141.84;83.28;18732.78;5031310;28;20221;-61
2022/11/21 01:51:31;;;;;;;27.97;18.30;;;1.00;99.90;;;-141.84;84.00;18740.91;5031559;28;20213;-62
2022/11/21 01:54:08;;;;;;;27.70;18.43;;;0.90;99.90;;;-141.84;83.88;18734.81;5031504;28;20217;-61
2022/11/21 01:56:46;;;;;;;29.07;18.43;;;0.90;99.90;;;-141.84;83.60;18738.88;5031385;28;20221;-60
2022/11/21 01:59:21;;;;;;;29.73;19.47;;;0.90;99.90;;;-141.84;83.91;18757.16;5030643;28;20279;-61
2022/11/21 02:01:55;;;;;;;31.17;19.03;;;0.80;99.90;;;-141.84;84.00;18710.44;5030690;28;20661;-61
2022/11/21 02:04:28;;;;;;;29.13;18.13;;;0.80;99.90;;;-141.84;84.58;18744.97;5031098;28;20790;-61
2022/11/21 02:06:58;;;;;;;29.33;19.83;;;0.80;99.90;;;-141.84;84.83;18716.53;5030911;28;20502;-61
2022/11/21 02:09:26;;;;;;;32.53;19.07;;;0.70;99.90;;;-141.84;84.69;18761.22;5031317;28;20206;-61
2022/11/21 02:12:02;;;;;;;30.13;18.80;;;0.80;99.90;;;-141.84;84.96;18751.06;5030770;28;20241;-62
2022/11/21 02:14:31;;;;;;;31.83;18.77;;;0.70;99.90;;;-141.84;85.42;18734.81;5030683;28;20248;-62
2022/11/21 02:17:07;;;;;;;28.83;19.30;;;0.70;99.90;;;-141.84;85.88;18722.63;5030764;28;20264;-61
2022/11/21 02:19:52;;;;;;;33.17;18.70;;;0.70;99.90;;;-141.84;86.17;18710.44;5030992;28;20234;-61
2022/11/21 02:22:33;;;;;;;28.90;18.83;;;0.60;99.90;;;-141.84;86.12;18724.66;5030689;28;20226;-61
2022/11/21 02:25:09;;;;;;;28.77;19.30;;;0.70;99.90;;;-141.84;86.30;18726.69;5030626;28;20234;-62
2022/11/21 02:27:38;;;;;;;29.33;18.80;;;0.70;99.90;;;-141.84;86.30;18704.31;5030682;28;20193;-61
2022/11/21 02:30:09;;;;;;;29.03;18.00;;;0.60;99.90;;;-141.84;86.47;18744.97;5031173;28;20226;-60
2022/11/21 02:32:40;;;;;;;28.20;18.70;;;0.60;99.90;;;-141.84;86.61;18740.91;5030326;28;20230;-60
2022/11/21 02:35:09;;;;;;;29.00;18.23;;;0.60;99.90;;;-141.84;86.66;18740.91;5030674;28;20780;-60
2022/11/21 02:37:37;;;;;;;27.77;17.83;;;0.60;99.90;;;-141.84;86.82;18692.13;5030515;28;20226;-60
2022/11/21 02:40:13;;;;;;;27.93;18.23;;;0.50;99.90;;;-141.84;87.12;18686.03;5030495;28;20220;-62
2022/11/21 02:42:49;;;;;;;30.10;19.03;;;0.50;99.90;;;-141.84;87.11;18696.19;5030646;28;20196;-62
2022/11/21 02:45:26;;;;;;;31.37;18.87;;;0.60;99.90;;;-141.84;87.05;18698.22;5031050;28;20269;-61
2022/11/21 02:47:57;;;;;;;29.17;17.87;;;0.50;99.90;;;-141.84;87.38;18716.53;5030101;28;20241;-62
2022/11/21 02:50:34;;;;;;;30.57;18.93;;;0.50;99.90;;;-141.84;87.40;18710.44;5030378;28;20384;-60
2022/11/21 02:53:02;;;;;;;28.67;19.07;;;0.50;99.90;;;-141.84;87.52;18706.38;5030192;28;20232;-61
2022/11/21 02:55:32;;;;;;;27.20;18.07;;;0.50;99.90;;;-141.84;87.52;18675.88;5030753;28;20273;-61
2022/11/21 02:58:00;;;;;;;29.33;18.90;;;0.50;99.90;;;-141.84;87.65;18710.44;5030035;28;20656;-61
2022/11/21 03:00:33;;;;;;;29.77;18.30;;;0.50;99.90;;;-141.84;87.53;18716.53;5030266;28;20208;-61
2022/11/21 03:03:02;;;;;;;29.97;18.37;;;0.50;99.90;;;-141.84;87.67;18686.03;5030895;28;20209;-61
2022/11/21 03:05:30;;;;;;;27.50;17.97;;;0.50;99.90;;;-141.84;87.70;18708.41;5030258;28;20740;-61
2022/11/21 03:07:59;;;;;;;28.23;18.27;;;0.50;99.90;;;-141.84;87.56;18712.47;5030126;28;20285;-60
2022/11/21 03:10:27;;;;;;;30.53;18.67;;;0.60;99.90;;;-141.84;86.92;18720.59;5031236;28;20222;-61
2022/11/21 03:13:00;;;;;;;32.10;19.50;;;0.70;99.90;;;-141.84;86.80;18730.75;5034233;28;20253;-61
2022/11/21 03:15:32;;;;;;;25.07;18.23;;;0.70;99.90;;;-141.84;85.46;18716.53;5034867;28;20189;-62
2022/11/21 03:18:02;;;;;;;29.93;18.07;;;1.00;99.90;;;-141.84;84.09;18718.56;5034436;28;20225;-60
2022/11/21 03:20:31;;;;;;;31.13;19.33;;;0.80;99.90;;;-141.84;83.50;18761.22;5034081;28;20241;-61
2022/11/21 03:22:59;;;;;;;32.07;18.27;;;0.80;99.90;;;-141.84;83.57;18744.97;5034200;28;20236;-61
2022/11/21 03:25:27;;;;;;;29.83;18.57;;;0.80;99.90;;;-141.84;84.27;18710.44;5033540;28;20721;-60
2022/11/21 03:27:57;;;;;;;29.03;17.57;;;0.70;99.90;;;-141.84;84.35;18702.28;5033803;28;20692;-61
2022/11/21 03:30:26;;;;;;;29.67;19.13;;;0.60;99.90;;;-141.84;84.90;18714.50;5033962;28;20516;-61
2022/11/21 03:32:56;;;;;;;30.53;19.30;;;0.60;99.90;;;-141.84;85.23;18716.53;5033724;28;20239;-61
2022/11/21 03:35:24;;;;;;;30.13;18.80;;;0.70;99.90;;;-141.84;84.53;18712.47;5033561;28;20226;-63
2022/11/21 03:37:52;;;;;;;28.37;17.83;;;0.60;99.90;;;-141.84;84.25;18740.91;5033524;28;20717;-61
2022/11/21 03:40:20;;;;;;;33.27;19.07;;;0.60;99.90;;;-141.84;83.27;18718.56;5033443;28;20237;-61
2022/11/21 03:42:48;;;;;;;28.57;17.77;;;0.60;99.90;;;-141.84;83.29;18692.13;5033915;28;20206;-61
2022/11/21 03:45:19;;;;;;;26.20;17.33;;;0.50;99.90;;;-141.84;83.47;18716.53;5034102;28;20235;-61
2022/11/21 03:47:47;;;;;;;30.80;18.27;;;0.40;99.90;;;-141.84;82.90;18706.38;5033313;28;20650;-61
2022/11/21 03:50:17;;;;;;;31.43;18.60;;;0.50;99.90;;;-141.84;82.80;18749.03;5033622;28;20240;-62
2022/11/21 03:52:46;;;;;;;31.70;19.00;;;0.40;99.90;;;-141.84;81.99;18706.38;5033540;28;20323;-60
2022/11/21 03:55:14;;;;;;;29.00;18.50;;;0.50;99.90;;;-141.84;81.03;18751.06;5033284;28;20228;-61
2022/11/21 03:57:42;;;;;;;29.27;18.13;;;0.50;99.90;;;-141.84;81.63;18724.66;5033222;28;20683;-60
2022/11/21 04:00:13;;;;;;;32.43;18.43;;;0.40;99.90;;;-141.84;82.12;18718.56;5033674;28;20678;-63
2022/11/21 04:02:42;;;;;;;32.17;18.90;;;0.40;99.90;;;-141.84;81.78;18692.13;5033345;28;20228;-62
2022/11/21 04:05:10;;;;;;;30.10;18.13;;;0.40;99.90;;;-141.84;81.92;18716.53;5033068;28;20233;-61
2022/11/21 04:07:38;;;;;;;31.10;18.63;;;0.30;99.90;;;-141.84;81.84;18724.66;5033136;28;20267;-61
2022/11/21 04:10:07;;;;;;;30.60;18.80;;;0.40;99.90;;;-141.84;81.40;18740.91;5032990;28;20527;-62
2022/11/21 04:12:36;;;;;;;28.70;18.83;;;0.40;99.90;;;-141.84;81.69;18724.66;5033127;28;20696;-60
2022/11/21 04:15:05;;;;;;;33.87;20.23;;;0.30;99.90;;;-141.84;81.77;18724.66;5033456;28;20217;-62
2022/11/21 04:17:41;;;;;;;32.93;20.20;;;0.30;99.90;;;-141.84;81.95;18714.50;5032985;28;20231;-61
2022/11/21 04:20:11;;;;;;;33.57;20.50;;;0.30;99.90;;;-141.84;82.19;18712.47;5032849;28;20232;-62
2022/11/21 04:22:39;;;;;;;32.43;19.83;;;0.30;99.90;;;-141.84;82.29;18736.84;5032315;28;20281;-61
2022/11/21 04:25:08;;;;;;;31.37;20.90;;;0.30;99.90;;;-141.84;82.61;18710.44;5032533;28;20750;-61
2022/11/21 04:27:36;;;;;;;33.10;19.87;;;0.30;99.90;;;-141.84;82.06;18718.56;5032897;28;20417;-63
2022/11/21 04:30:06;;;;;;;31.17;18.97;;;0.30;99.90;;;-141.84;82.26;18702.28;5033111;28;20210;-61
2022/11/21 04:32:34;;;;;;;32.87;20.33;;;0.30;99.90;;;-141.84;82.74;18734.81;5032638;28;20239;-61
2022/11/21 04:35:04;;;;;;;30.67;19.87;;;0.30;99.90;;;-141.84;82.93;18720.59;5032600;28;20237;-60
2022/11/21 04:37:33;;;;;;;33.93;20.20;;;0.30;99.90;;;-141.84;82.55;18708.41;5032725;28;20232;-61
2022/11/21 04:40:01;;;;;;;32.60;19.17;;;0.20;99.90;;;-141.84;82.07;18702.28;5032424;28;20241;-61
2022/11/21 04:42:29;;;;;;;30.13;19.37;;;0.20;99.90;;;-141.84;82.46;18688.06;5033214;28;20200;-62
2022/11/21 04:44:57;;;;;;;29.57;19.27;;;0.20;99.90;;;-141.84;82.41;18736.84;5052469;28;20473;-61
2022/11/21 04:47:25;;;;;;;30.40;19.23;;;0.20;99.90;;;-141.84;82.30;18722.63;5052219;28;20796;-61
2022/11/21 04:49:54;;;;;;;28.33;18.80;;;0.20;99.90;;;-141.84;82.11;18736.84;5052404;28;20235;-61
2022/11/21 04:52:23;;;;;;;30.53;18.40;;;0.20;99.90;;;-141.84;82.41;18677.91;5052077;28;20277;-61
2022/11/21 04:54:51;;;;;;;29.50;18.67;;;0.20;99.90;;;-141.84;81.88;18724.66;5052133;28;20221;-61
2022/11/21 04:57:19;;;;;;;31.57;19.63;;;0.20;99.90;;;-141.84;81.73;18724.66;5052807;28;20209;-60
2022/11/21 04:59:47;;;;;;;27.37;17.33;;;0.20;99.90;;;-141.84;82.14;18720.59;5052024;28;20234;-60
2022/11/21 05:02:16;;;;;;;29.43;17.40;;;0.20;99.90;;;-141.84;82.53;18726.69;5052073;28;20227;-62
2022/11/21 05:04:44;;;;;;;27.67;17.33;;;0.20;99.90;;;-141.84;82.52;18708.41;5052169;28;20247;-61
2022/11/21 05:07:12;;;;;;;29.97;18.10;;;0.20;99.90;;;-141.84;82.80;18712.47;5052257;28;20277;-61
2022/11/21 05:09:42;;;;;;;29.17;18.00;;;0.10;99.90;;;-141.84;83.68;18679.94;5051923;28;20208;-61
2022/11/21 05:14:56;;;;;;;26.07;17.13;;;0.10;99.90;;;-141.84;82.42;18728.72;5052035;28;20219;-62
2022/11/21 05:17:24;;;;;;;26.10;16.30;;;0.20;99.90;;;-141.84;82.21;18716.53;5051740;28;20735;-61
2022/11/21 05:19:53;;;;;;;26.27;16.83;;;0.20;99.90;;;-141.84;82.73;18706.38;5052106;28;20229;-62
2022/11/21 05:22:21;;;;;;;27.30;17.30;;;0.10;99.90;;;-141.84;83.26;18708.41;5051827;28;20228;-61
2022/11/21 05:24:50;;;;;;;26.87;17.00;;;0.10;99.90;;;-141.84;83.58;18688.06;5051583;28;20209;-61
2022/11/21 05:27:19;;;;;;;25.80;17.23;;;0.10;99.90;;;-141.84;83.47;18694.16;5052186;28;20605;-61
2022/11/21 05:29:47;;;;;;;26.37;16.63;;;0.20;99.90;;;-141.84;83.39;18688.06;5051525;28;20228;-62
2022/11/21 05:32:16;;;;;;;28.70;16.90;;;0.20;99.90;;;-141.84;83.82;18700.25;5051217;28;20232;-60
2022/11/21 05:34:44;;;;;;;27.13;17.70;;;0.20;99.90;;;-141.84;83.89;18696.19;5051537;28;20229;-61
2022/11/21 05:37:12;;;;;;;26.50;17.00;;;0.10;99.90;;;-141.84;84.00;18718.56;5051992;28;20236;-61
2022/11/21 05:39:40;;;;;;;30.03;17.97;;;0.10;99.90;;;-141.84;84.14;18704.31;5051669;28;20215;-62
2022/11/21 05:42:10;;;;;;;26.40;16.70;;;0.20;99.90;;;-141.84;84.24;18728.72;5051856;28;20200;-62
2022/11/21 05:44:37;;;;;;;24.80;16.43;;;0.20;99.90;;;-141.84;84.43;18726.69;5051375;28;20229;-61
2022/11/21 05:47:05;;;;;;;26.50;17.40;;;0.20;99.90;;;-141.84;84.46;18677.91;5051024;28;20481;-62
2022/11/21 05:49:33;;;;;;;27.23;17.37;;;0.20;99.90;;;-141.84;84.76;18716.53;5051295;28;20225;-61
2022/11/21 05:52:01;;;;;;;26.30;16.30;;;0.20;99.90;;;-141.84;85.10;18704.31;5051216;28;20238;-61
2022/11/21 05:54:29;;;;;;;27.70;16.80;;;0.20;99.90;;;-141.84;85.29;18714.50;5051731;28;20203;-61
2022/11/21 05:56:58;;;;;;;27.30;17.67;;;0.20;99.90;;;-141.84;85.40;18686.03;5031329;28;20257;-61
2022/11/21 05:59:27;;;;;;;27.00;17.73;;;0.20;99.90;;;-141.84;85.25;18702.28;5030908;28;20727;-62
2022/11/21 06:04:41;;;;;;;32.20;20.30;;;0.20;99.90;;;-141.84;83.30;18710.44;5031088;28;20247;-61
2022/11/21 06:07:09;;;;;;;30.40;19.40;;;0.30;99.90;;;-141.84;83.15;18724.66;5030730;28;20226;-60
2022/11/21 06:09:37;;;;;;;33.40;19.43;;;0.30;99.90;;;-141.84;82.90;18684.00;5030952;28;20212;-60
2022/11/21 06:12:06;;;;;;;32.43;19.83;;;0.30;99.90;;;-141.84;82.32;18706.38;5030763;28;20701;-62
2022/11/21 06:14:35;;;;;;;36.77;20.63;;;0.20;99.90;;;-141.84;82.03;18734.81;5030793;28;20235;-61
2022/11/21 06:17:03;;;;;;;34.27;20.27;;;0.10;99.90;;;-141.84;82.41;18718.56;5030709;28;20587;-63
2022/11/21 06:19:31;;;;;;;32.90;21.03;;;0.10;99.90;;;-141.84;82.32;18704.31;5030895;28;20239;-62
2022/11/21 06:21:59;;;;;;;37.90;22.17;;;0.10;99.90;;;-141.84;82.21;18694.16;5030765;28;20235;-61
2022/11/21 06:24:28;;;;;;;33.27;20.43;;;0.00;99.90;;;-141.84;82.05;18740.91;5031009;28;20670;-62
2022/11/21 06:26:57;;;;;;;32.33;19.63;;;0.10;99.90;;;-141.84;81.96;18716.53;5030292;28;20263;-61
2022/11/21 06:29:25;;;;;;;35.70;21.20;;;0.10;99.90;;;-141.84;81.82;18742.94;5030525;28;20615;-61
2022/11/21 06:31:55;;;;;;;33.07;19.23;;;0.10;99.90;;;-141.84;81.97;18675.88;5030292;28;20228;-61
2022/11/21 06:34:25;;;;;;;34.13;19.97;;;0.10;99.90;;;-141.84;82.45;18686.03;5030778;28;20232;-60
2022/11/21 06:36:54;;;;;;;37.70;20.83;;;0.10;99.90;;;-141.84;81.79;18720.59;5030589;28;20229;-61
2022/11/21 06:39:22;;;;;;;34.83;20.97;;;0.20;99.90;;;-141.84;81.81;18708.41;5030970;28;20204;-62
2022/11/21 06:41:50;;;;;;;35.73;20.87;;;0.00;99.90;;;-141.84;82.17;18694.16;5029928;28;20234;-61
2022/11/21 06:44:19;;;;;;;36.37;21.17;;;0.10;99.90;;;-141.84;82.33;18720.59;5029593;28;20223;-60
2022/11/21 06:46:47;;;;;;;36.43;20.50;;;0.10;99.90;;;-141.84;82.37;18714.50;5029993;28;20249;-61
2022/11/21 06:49:21;;;;;;;35.10;20.40;;;0.00;99.90;;;-141.84;81.89;18686.03;5030259;28;20317;-61
2022/11/21 06:51:49;;;;;;;36.77;21.47;;;0.10;99.90;;;-141.84;82.14;18710.44;5030234;28;20202;-60
2022/11/21 06:54:17;;;;;;;39.30;22.10;;;0.10;99.90;;;-141.84;82.60;18679.94;5030487;28;20676;-60
2022/11/21 06:56:45;;;;;;;38.30;22.27;;;0.00;99.90;;;-141.84;82.44;18696.19;5029766;28;20241;-62
2022/11/21 06:59:13;;;;;;;36.27;19.83;;;0.10;99.90;;;-141.84;82.55;18724.66;5029918;28;20727;-61
2022/11/21 07:01:41;;;;;;;36.70;21.53;;;0.10;99.90;;;-141.84;83.15;18673.84;5030061;28;20779;-66
2022/11/21 07:04:09;;;;;;;36.57;21.33;;;0.00;99.90;;;-141.84;83.21;18718.56;5030339;28;20680;-61
2022/11/21 07:06:39;;;;;;;35.03;21.00;;;0.00;99.90;;;-141.84;83.25;18712.47;5030324;28;20217;-63
2022/11/21 07:09:07;;;;;;;32.13;19.60;;;0.00;99.90;;;-141.84;83.60;18688.06;5030562;28;20209;-63
2022/11/21 07:13:20;;;;;;;37.63;22.00;;;0.00;99.90;;;-141.84;82.90;18675.88;5029806;28;20281;-62
2022/11/21 07:14:43;;;;;;;36.93;21.10;;;0.00;99.90;;;-141.84;82.75;18700.25;5029869;28;20226;-61
2022/11/21 07:17:11;;;;;;;36.80;20.90;;;0.00;99.90;;;-141.84;83.04;18728.72;5029938;28;20608;-63
2022/11/21 07:19:40;;;;;;;35.30;21.13;;;0.10;99.90;;;-141.84;83.36;18716.53;5030125;28;20654;-62
2022/11/21 07:22:10;;;;;;;36.57;21.27;;;0.10;99.90;;;-141.84;83.57;18686.03;5030005;28;20294;-60
2022/11/21 07:24:38;;;;;;;41.30;22.03;;;0.20;99.90;;;-141.84;83.56;18726.69;5029914;28;20686;-60
2022/11/21 07:27:06;;;;;;;36.57;21.40;;;0.20;99.90;;;-141.84;83.41;18724.66;5030306;28;20201;-62
2022/11/21 07:29:34;;;;;;;36.83;21.77;;;0.20;99.90;;;-141.84;82.64;18728.72;5029851;28;20226;-61
2022/11/21 07:32:02;;;;;;;33.83;20.53;;;0.30;99.90;;;-141.84;81.33;18720.59;5030044;28;20352;-61
2022/11/21 07:34:31;;;;;;;34.43;20.90;;;0.30;99.90;;;-141.84;81.41;18716.53;5029641;28;20237;-61
2022/11/21 07:36:59;;;;;;;39.33;21.03;;;0.40;99.90;;;-141.84;81.27;18736.84;5029865;28;20225;-62
2022/11/21 07:39:28;;;;;;;35.47;19.77;;;0.40;99.90;;;-141.84;81.31;18716.53;5029693;28;20256;-62
2022/11/21 07:41:57;;;;;;;32.87;19.60;;;0.50;99.90;;;-141.84;81.31;18718.56;5030074;28;20226;-60
2022/11/21 07:44:25;;;;;;;34.47;20.80;;;0.40;99.90;;;-141.84;80.50;18740.91;5029623;28;20637;-62
2022/11/21 07:46:55;;;;;;;34.83;21.27;;;0.30;99.90;;;-141.84;80.03;18708.41;5029690;28;20274;-62
2022/11/21 07:49:23;;;;;;;35.83;20.60;;;0.40;99.90;;;-141.84;79.33;18724.66;5029603;28;20225;-62
2022/11/21 07:51:51;;;;;;;32.20;19.40;;;0.50;99.90;;;-141.84;79.01;18716.53;5029815;28;20238;-61
2022/11/21 07:54:19;;;;;;;36.43;19.63;;;0.50;99.90;;;-141.84;79.56;18690.09;5030122;28;20248;-61
2022/11/21 07:56:49;;;;;;;33.27;18.80;;;0.40;99.90;;;-141.84;79.36;18708.41;5031535;28;20225;-61
2022/11/21 07:59:18;;;;;;;36.07;20.40;;;0.40;99.90;;;-141.84;79.74;18736.84;5033110;28;20275;-62
2022/11/21 08:01:46;;;;;;;33.40;19.53;;;0.40;99.90;;;-141.84;80.39;18734.81;5033510;28;20226;-62
2022/11/21 08:04:14;;;;;;;29.23;17.87;;;0.30;99.90;;;-141.84;80.53;18677.91;5033336;28;20577;-63
2022/11/21 08:06:42;;;;;;;30.70;17.30;;;0.30;99.90;;;-141.84;79.68;18763.25;5033185;28;20206;-63
2022/11/21 08:09:11;;;;;;;31.43;17.73;;;0.40;99.90;;;-141.84;80.18;18749.03;5033664;28;20218;-62
2022/11/21 08:11:39;;;;;;;29.60;17.23;;;0.30;99.90;;;-141.84;80.65;18718.56;5032797;28;20238;-62
2022/11/21 08:14:08;;;;;;;26.93;16.37;;;0.30;99.90;;;-141.84;80.26;18761.22;5032796;28;20729;-63
2022/11/21 08:16:36;;;;;;;28.73;16.43;;;0.40;99.90;;;-141.84;79.89;18740.91;5033401;28;20294;-62
2022/11/21 08:19:05;;;;;;;25.97;15.30;;;0.40;99.90;;;-141.84;79.95;18728.72;5032945;28;20231;-62
2022/11/21 08:21:33;;;;;;;27.40;15.67;;;0.40;99.90;;;-141.84;79.13;18740.91;5033485;28;20206;-62
2022/11/21 08:24:01;;;;;;;27.77;15.90;;;0.50;99.90;;;-141.84;79.21;18730.75;5033545;28;20196;-62
2022/11/21 08:26:30;;;;;;;27.40;15.90;;;0.50;99.90;;;-141.84;79.36;18720.59;5032976;28;20242;-63
2022/11/21 08:28:58;;;;;;;27.27;15.83;;;0.50;99.90;;;-141.84;79.12;18742.94;5032563;28;20229;-62
2022/11/21 08:31:28;;;;;;;25.60;15.00;;;0.50;99.90;;;-141.84;78.70;18720.59;5032961;28;20226;-61
2022/11/21 08:33:56;;;;;;;27.17;15.63;;;0.60;99.90;;;-141.84;78.41;18753.09;5032435;28;20694;-61
2022/11/21 08:36:25;;;;;;;27.27;14.90;;;0.60;99.90;;;-141.84;78.59;18749.03;5033328;28;20202;-62
2022/11/21 08:38:53;;;;;;;26.33;14.97;;;0.50;99.90;;;-141.84;78.10;18730.75;5032218;28;20226;-60
2022/11/21 08:44:08;;;;;;;27.37;14.83;;;0.70;99.90;;;-141.84;76.28;18781.53;5032372;28;20233;-62
2022/11/21 08:46:42;;;;;;;29.13;15.37;;;0.80;99.90;;;-141.84;76.97;18775.44;5032362;28;20241;-62
2022/11/21 08:49:11;;;;;;;31.07;16.00;;;0.70;99.90;;;-141.84;77.88;18728.72;5032407;28;20256;-62
2022/11/21 08:51:40;;;;;;;27.47;16.53;;;0.80;99.90;;;-141.84;78.54;18744.97;5032201;28;20253;-62
2022/11/21 08:54:09;;;;;;;28.63;15.87;;;0.80;99.90;;;-141.84;78.08;18736.84;5032479;28;20221;-62
2022/11/21 08:56:37;;;;;;;27.90;15.30;;;0.80;99.90;;;-141.84;77.94;18757.16;5032323;28;20268;-63
2022/11/21 08:59:05;;;;;;;28.03;16.13;;;0.90;99.90;;;-141.84;78.29;18747.00;5032072;28;20645;-63
2022/11/21 09:01:33;;;;;;;27.90;15.67;;;0.90;99.90;;;-141.84;78.54;18730.75;5032298;28;20230;-62
2022/11/21 09:04:03;;;;;;;26.30;15.07;;;0.90;99.90;;;-141.84;78.25;18759.19;5031923;28;20225;-61
2022/11/21 09:06:32;;;;;;;23.70;15.00;;;1.00;99.90;;;-141.84;77.47;18740.91;5032222;28;20201;-64
2022/11/21 09:09:00;;;;;;;24.23;13.97;;;1.00;99.90;;;-141.84;77.63;18761.22;5032310;28;20213;-63
2022/11/21 09:11:28;;;;;;;21.37;13.50;;;1.10;99.90;;;-141.84;77.55;18761.22;5031991;28;20237;-63
2022/11/21 09:19:31;;;;;;;17.87;12.00;;;1.40;99.90;;;-141.84;76.08;18807.94;5031727;28;20782;-62
2022/11/21 09:21:59;;;;;;;19.57;11.77;;;1.80;99.90;;;-141.84;75.19;18828.28;5031894;28;20252;-63
2022/11/21 09:24:27;;;;;;;22.70;12.77;;;1.70;99.90;;;-141.84;75.10;18816.06;5032161;28;20202;-62
2022/11/21 09:26:55;;;;;;;22.37;12.83;;;1.90;99.90;;;-141.84;74.66;18814.03;5031627;28;20275;-61
2022/11/21 09:29:23;;;;;;;21.07;13.37;;;2.00;99.90;;;-141.84;74.08;18834.38;5031669;28;20286;-62
2022/11/21 09:31:52;;;;;;;23.43;13.87;;;2.10;99.90;;;-141.84;74.03;18812.00;5031616;28;20261;-63
2022/11/21 09:34:20;;;;;;;21.80;13.53;;;2.20;99.90;;;-141.84;73.92;18856.72;5031554;28;20284;-62
2022/11/21 09:36:49;;;;;;;23.53;15.00;;;2.20;99.90;;;-141.84;73.49;18852.66;5031675;28;20208;-63
2022/11/21 09:39:19;;;;;;;21.93;13.47;;;2.20;99.90;;;-141.84;73.54;18824.22;5032213;28;20210;-63
2022/11/21 09:42:04;;;;;;;21.70;13.03;;;2.10;99.90;;;-141.84;73.65;18822.19;5031563;28;20768;-64
2022/11/21 09:45:04;;;;;;;23.07;14.70;;;2.20;99.90;;;-141.84;73.35;18836.41;5031051;28;20233;-63
2022/11/21 09:47:36;;;;;;;22.60;13.53;;;2.10;99.90;;;-141.84;73.50;18803.88;5030982;28;20233;-62
2022/11/21 09:50:24;;;;;;;23.03;13.47;;;2.00;99.90;;;-141.84;73.20;18824.22;5031299;28;20222;-63
2022/11/21 09:53:01;;;;;;;22.63;13.80;;;2.10;99.90;;;-141.84;73.30;18816.06;5031290;28;20234;-62
2022/11/21 09:55:41;;;;;;;21.83;13.27;;;2.10;99.90;;;-141.84;73.46;18846.56;5031096;28;20231;-62
2022/11/21 09:58:22;;;;;;;23.30;14.13;;;2.10;99.90;;;-141.84;73.10;18846.56;5031132;28;20783;-62
2022/11/21 10:00:51;;;;;;;21.53;13.33;;;2.10;99.90;;;-141.84;73.25;18848.59;5030733;28;20684;-63
2022/11/21 10:03:25;;;;;;;21.30;13.43;;;2.10;99.90;;;-141.84;73.56;18809.97;5031442;28;20210;-63
2022/11/21 10:06:00;;;;;;;23.03;13.90;;;2.00;99.90;;;-141.84;73.07;18864.84;5030796;28;20230;-63
2022/11/21 10:08:47;;;;;;;22.50;14.07;;;1.90;99.90;;;-141.84;73.61;18822.19;5031089;28;20235;-62
2022/11/21 10:11:30;;;;;;;22.47;13.60;;;1.90;99.90;;;-141.84;73.55;18822.19;5030705;28;20225;-62
2022/11/21 10:14:18;;;;;;;21.77;13.60;;;2.00;99.90;;;-141.84;72.69;18842.50;5030706;28;20233;-63
2022/11/21 10:16:59;;;;;;;22.40;13.93;;;2.10;99.90;;;-141.84;72.92;18818.09;5030718;28;20291;-62
2022/11/21 10:19:59;;;;;;;22.87;14.33;;;2.00;99.90;;;-141.84;72.89;18834.38;5030321;28;20721;-63
2022/11/21 10:22:53;;;;;;;23.90;13.93;;;2.00;99.90;;;-141.84;72.68;18836.41;5030606;28;20236;-61
2022/11/21 10:25:29;;;;;;;26.73;15.40;;;2.20;99.90;;;-141.84;72.68;18854.69;5030579;28;20237;-62
2022/11/21 10:28:06;;;;;;;23.37;14.27;;;2.30;99.90;;;-141.84;72.80;18850.63;5030424;28;20800;-63